createdAt,value
2018-06-21T00:02:18.908Z,18.60
2018-06-21T00:04:47.356Z,18.50
2018-06-21T00:07:15.869Z,18.40
2018-06-21T00:09:44.481Z,18.40
2018-06-21T00:12:12.900Z,18.30
2018-06-21T00:14:41.353Z,18.30
2018-06-21T00:17:09.805Z,18.10
2018-06-21T00:19:38.233Z,18.10
2018-06-21T00:22:06.658Z,18.00
2018-06-21T00:24:35.103Z,18.00
2018-06-21T00:27:03.594Z,18.00
2018-06-21T00:29:32.028Z,18.00
2018-06-21T00:32:00.444Z,17.90
2018-06-21T00:34:28.884Z,17.90
2018-06-21T00:36:57.317Z,18.00
2018-06-21T00:39:25.813Z,17.90
2018-06-21T00:41:54.231Z,17.90
2018-06-21T00:44:22.669Z,17.90
2018-06-21T00:46:51.083Z,17.80
2018-06-21T00:49:19.516Z,17.80
2018-06-21T00:51:47.924Z,17.70
2018-06-21T00:54:16.363Z,17.60
2018-06-21T00:56:44.813Z,17.60
2018-06-21T00:59:13.241Z,17.50
2018-06-21T01:01:41.641Z,17.60
2018-06-21T01:04:10.069Z,17.50
2018-06-21T01:06:38.468Z,17.40
2018-06-21T01:09:07.328Z,17.40
2018-06-21T01:11:35.842Z,17.30
2018-06-21T01:14:04.278Z,17.30
2018-06-21T01:16:32.697Z,17.30
2018-06-21T01:19:01.122Z,17.20
2018-06-21T01:21:29.629Z,17.10
2018-06-21T01:23:58.057Z,17.10
2018-06-21T01:26:27.256Z,17.00
2018-06-21T01:28:55.694Z,17.00
2018-06-21T01:31:24.096Z,17.10
2018-06-21T01:33:52.500Z,17.00
2018-06-21T01:36:20.906Z,17.00
2018-06-21T01:38:49.301Z,17.00
2018-06-21T01:41:17.741Z,17.00
2018-06-21T01:43:46.140Z,17.00
2018-06-21T01:46:14.608Z,17.00
2018-06-21T01:48:43.008Z,17.00
2018-06-21T01:51:11.448Z,17.00
2018-06-21T01:53:39.912Z,17.00
2018-06-21T01:56:08.355Z,16.90
2018-06-21T01:58:36.780Z,16.80
2018-06-21T02:01:05.281Z,16.70
2018-06-21T02:03:33.695Z,16.60
2018-06-21T02:06:02.148Z,16.60
2018-06-21T02:08:30.564Z,16.60
2018-06-21T02:10:59.004Z,16.60
2018-06-21T02:13:27.527Z,16.60
2018-06-21T02:15:55.971Z,16.60
2018-06-21T02:18:24.401Z,16.60
2018-06-21T02:20:52.846Z,16.60
2018-06-21T02:23:21.403Z,16.60
2018-06-21T02:25:49.852Z,16.50
2018-06-21T02:28:18.301Z,16.40
2018-06-21T02:30:46.756Z,16.40
2018-06-21T02:33:15.193Z,16.40
2018-06-21T02:35:43.628Z,16.30
2018-06-21T02:38:12.055Z,16.20
2018-06-21T02:40:40.516Z,16.20
2018-06-21T02:43:08.937Z,16.10
2018-06-21T02:45:37.464Z,16.10
2018-06-21T02:48:05.925Z,16.10
2018-06-21T02:50:34.474Z,16.00
2018-06-21T02:53:02.929Z,16.00
2018-06-21T02:55:31.396Z,16.00
2018-06-21T02:57:59.840Z,16.00
2018-06-21T03:00:28.281Z,16.00
2018-06-21T03:02:56.709Z,15.90
2018-06-21T03:05:25.164Z,15.80
2018-06-21T03:07:53.585Z,15.80
2018-06-21T03:10:22.038Z,15.80
2018-06-21T03:12:50.459Z,15.80
2018-06-21T03:15:18.901Z,15.80
2018-06-21T03:17:47.327Z,15.80
2018-06-21T03:20:15.772Z,15.80
2018-06-21T03:22:44.212Z,16.00
2018-06-21T03:25:12.652Z,16.00
2018-06-21T03:27:41.173Z,16.10
2018-06-21T03:30:09.612Z,16.10
2018-06-21T03:32:38.035Z,16.20
2018-06-21T03:35:06.528Z,16.20
2018-06-21T03:37:35.000Z,16.20
2018-06-21T03:40:03.838Z,16.30
2018-06-21T03:42:32.320Z,16.40
2018-06-21T03:45:00.674Z,16.40
2018-06-21T03:47:29.089Z,16.40
2018-06-21T03:49:57.695Z,16.50
2018-06-21T03:52:26.111Z,16.50
2018-06-21T03:54:54.768Z,16.60
2018-06-21T03:57:23.274Z,16.60
2018-06-21T03:59:51.733Z,16.70
2018-06-21T04:02:20.208Z,16.70
2018-06-21T04:04:48.563Z,16.80
2018-06-21T04:07:16.978Z,16.80
2018-06-21T04:09:45.368Z,16.90
2018-06-21T04:12:13.757Z,17.00
2018-06-21T04:14:42.143Z,17.10
2018-06-21T04:17:10.527Z,17.10
2018-06-21T04:19:38.929Z,17.10
2018-06-21T04:22:07.365Z,17.20
2018-06-21T04:24:35.824Z,17.20
2018-06-21T04:27:04.247Z,17.30
2018-06-21T04:29:32.774Z,17.30
2018-06-21T04:32:01.169Z,17.30
2018-06-21T04:34:29.568Z,17.50
2018-06-21T04:39:26.219Z,18.00
2018-06-21T04:41:54.611Z,18.00
2018-06-21T04:44:23.028Z,18.00
2018-06-21T04:46:51.556Z,18.20
2018-06-21T04:49:19.923Z,18.30
2018-06-21T04:51:48.307Z,18.20
2018-06-21T04:54:16.978Z,18.10
2018-06-21T04:56:45.475Z,18.10
2018-06-21T04:59:13.863Z,18.00
2018-06-21T05:01:42.264Z,17.90
2018-06-21T05:04:10.863Z,17.90
2018-06-21T05:06:39.384Z,17.90
2018-06-21T05:09:10.211Z,17.90
2018-06-21T05:11:38.628Z,17.80
2018-06-21T05:14:07.099Z,17.80
2018-06-21T05:16:35.499Z,17.80
2018-06-21T05:19:03.975Z,17.90
2018-06-21T05:21:32.636Z,17.90
2018-06-21T05:24:01.051Z,17.90
2018-06-21T05:26:29.543Z,17.90
2018-06-21T05:28:57.915Z,17.90
2018-06-21T05:31:26.371Z,17.80
2018-06-21T05:33:54.799Z,17.70
2018-06-21T05:36:23.214Z,17.80
2018-06-21T05:38:51.927Z,17.80
2018-06-21T05:41:20.320Z,17.70
2018-06-21T05:43:48.695Z,17.70
2018-06-21T05:46:17.161Z,17.70
2018-06-21T05:48:45.560Z,17.70
2018-06-21T05:51:13.943Z,17.60
2018-06-21T05:53:42.608Z,17.60
2018-06-21T05:56:11.021Z,17.50
2018-06-21T05:58:39.594Z,17.50
2018-06-21T06:01:08.036Z,17.40
2018-06-21T06:03:36.436Z,17.30
2018-06-21T06:06:04.903Z,17.40
2018-06-21T06:08:33.446Z,17.50
2018-06-21T06:11:04.171Z,17.60
2018-06-21T06:13:32.600Z,17.60
2018-06-21T06:16:00.969Z,17.60
2018-06-21T06:18:29.369Z,17.60
2018-06-21T06:20:57.855Z,17.70
2018-06-21T06:23:26.312Z,17.70
2018-06-21T06:25:55.165Z,17.80
2018-06-21T06:28:23.598Z,17.90
2018-06-21T06:30:51.969Z,17.90
2018-06-21T06:33:20.532Z,18.10
2018-06-21T06:35:48.895Z,18.10
2018-06-21T06:38:17.460Z,18.30
2018-06-21T06:43:14.308Z,18.80
2018-06-21T06:45:42.742Z,18.80
2018-06-21T06:48:11.191Z,18.80
2018-06-21T06:50:39.570Z,18.80
2018-06-21T06:53:07.988Z,18.90
2018-06-21T06:55:36.367Z,18.90
2018-06-21T06:58:05.136Z,18.90
2018-06-21T07:00:33.532Z,18.60
2018-06-21T07:03:01.936Z,18.60
2018-06-21T07:05:30.358Z,18.40
2018-06-21T07:07:58.784Z,18.40
2018-06-21T07:10:27.151Z,18.30
2018-06-21T07:12:55.632Z,18.50
2018-06-21T07:15:24.020Z,18.60
2018-06-21T07:17:52.462Z,18.80
2018-06-21T07:20:21.002Z,19.30
2018-06-21T07:22:49.615Z,19.90
2018-06-21T07:25:17.971Z,20.70
2018-06-21T07:27:46.372Z,21.40
2018-06-21T07:30:14.772Z,21.80
2018-06-21T07:32:43.207Z,22.20
2018-06-21T07:35:11.721Z,22.10
2018-06-21T07:37:40.215Z,22.30
2018-06-21T07:40:08.651Z,21.80
2018-06-21T07:42:37.039Z,21.30
2018-06-21T07:45:05.538Z,20.70
2018-06-21T07:47:33.948Z,19.60
2018-06-21T07:50:02.361Z,19.30
2018-06-21T07:52:31.020Z,19.30
2018-06-21T07:54:59.491Z,19.00
2018-06-21T07:57:27.935Z,18.80
2018-06-21T07:59:56.375Z,19.10
2018-06-21T08:02:24.812Z,19.60
2018-06-21T08:04:53.193Z,19.90
2018-06-21T08:07:21.616Z,19.60
2018-06-21T08:09:50.030Z,20.00
2018-06-21T08:12:18.403Z,19.50
2018-06-21T08:14:46.780Z,19.70
2018-06-21T08:17:15.216Z,20.00
2018-06-21T08:19:43.627Z,19.80
2018-06-21T08:22:12.171Z,20.20
2018-06-21T08:24:40.583Z,20.60
2018-06-21T08:27:09.083Z,21.60
2018-06-21T08:29:37.476Z,21.10
2018-06-21T08:32:05.988Z,21.80
2018-06-21T08:34:34.418Z,22.10
2018-06-21T08:37:02.792Z,24.30
2018-06-21T08:39:31.221Z,24.70
2018-06-21T08:41:59.612Z,24.20
2018-06-21T08:46:56.314Z,21.90
2018-06-21T08:49:24.728Z,21.60
2018-06-21T08:51:53.191Z,21.30
2018-06-21T08:54:21.688Z,22.60
2018-06-21T08:56:50.071Z,23.00
2018-06-21T08:59:18.487Z,21.80
2018-06-21T09:01:46.839Z,21.50
2018-06-21T09:04:15.233Z,21.00
2018-06-21T09:09:11.771Z,20.50
2018-06-21T09:11:40.116Z,20.60
2018-06-21T09:14:08.815Z,20.30
2018-06-21T09:16:37.200Z,20.50
2018-06-21T09:19:05.639Z,23.00
2018-06-21T09:21:34.035Z,24.80
2018-06-21T09:24:02.448Z,26.50
2018-06-21T09:26:30.803Z,28.60
2018-06-21T09:28:59.302Z,25.30
2018-06-21T09:31:27.691Z,26.60
2018-06-21T09:33:56.250Z,25.10
2018-06-21T09:36:24.597Z,25.00
2018-06-21T09:38:58.239Z,22.80
2018-06-21T09:41:32.043Z,21.50
2018-06-21T09:44:05.797Z,21.20
2018-06-21T09:46:39.450Z,20.80
2018-06-21T09:49:07.833Z,22.30
2018-06-21T09:51:36.176Z,23.00
2018-06-21T09:54:04.858Z,23.00
2018-06-21T09:56:33.239Z,22.10
2018-06-21T09:59:01.631Z,21.90
2018-06-21T10:01:30.036Z,22.40
2018-06-21T10:03:58.474Z,22.30
2018-06-21T10:06:26.884Z,22.20
2018-06-21T10:08:55.339Z,21.70
2018-06-21T10:13:51.891Z,21.30
2018-06-21T10:16:20.293Z,21.50
2018-06-21T10:18:48.652Z,21.40
2018-06-21T10:21:17.080Z,20.90
2018-06-21T10:23:45.456Z,21.50
2018-06-21T10:26:13.905Z,22.00
2018-06-21T10:28:42.315Z,21.70
2018-06-21T10:31:10.973Z,21.50
2018-06-21T10:33:39.354Z,21.70
2018-06-21T10:36:07.783Z,21.20
2018-06-21T10:38:36.172Z,21.20
2018-06-21T10:41:04.815Z,21.50
2018-06-21T10:43:33.312Z,21.80
2018-06-21T10:46:02.049Z,22.20
2018-06-21T10:48:30.621Z,21.30
2018-06-21T10:50:59.184Z,20.70
2018-06-21T10:53:27.676Z,20.40
2018-06-21T10:55:56.072Z,20.50
2018-06-21T10:58:24.624Z,20.90
2018-06-21T11:00:53.136Z,20.70
2018-06-21T11:03:21.590Z,21.00
2018-06-21T11:05:50.001Z,21.40
2018-06-21T11:08:18.352Z,21.30
2018-06-21T11:10:46.724Z,21.10
2018-06-21T11:13:15.163Z,21.10
2018-06-21T11:15:43.529Z,20.20
2018-06-21T11:18:11.876Z,20.60
2018-06-21T11:20:40.259Z,20.40
2018-06-21T11:23:08.639Z,20.40
2018-06-21T11:25:37.184Z,21.00
2018-06-21T11:28:05.718Z,20.80
2018-06-21T11:30:34.292Z,20.40
2018-06-21T11:33:02.697Z,20.30
2018-06-21T11:35:31.219Z,20.80
2018-06-21T11:37:59.659Z,21.20
2018-06-21T11:40:28.029Z,21.10
2018-06-21T11:42:56.598Z,21.30
2018-06-21T11:45:24.988Z,21.50
2018-06-21T11:47:53.355Z,21.10
2018-06-21T11:50:22.067Z,20.80
2018-06-21T11:52:50.601Z,20.30
2018-06-21T11:55:19.069Z,20.30
2018-06-21T11:57:47.486Z,20.10
2018-06-21T12:00:15.937Z,20.80
2018-06-21T12:02:44.352Z,20.70
2018-06-21T12:05:12.768Z,20.40
2018-06-21T12:07:41.144Z,20.70
2018-06-21T12:10:09.582Z,21.20
2018-06-21T12:12:37.974Z,21.60
2018-06-21T12:15:06.405Z,21.50
2018-06-21T12:17:34.898Z,21.40
2018-06-21T12:20:03.315Z,20.80
2018-06-21T12:22:31.734Z,20.60
2018-06-21T12:25:00.122Z,20.70
2018-06-21T12:27:28.532Z,20.80
2018-06-21T12:29:57.116Z,21.00
2018-06-21T12:32:25.647Z,20.80
2018-06-21T12:34:54.050Z,20.80
2018-06-21T12:37:22.439Z,20.60
2018-06-21T12:39:50.934Z,20.60
2018-06-21T12:42:19.389Z,20.90
2018-06-21T12:44:47.768Z,20.30
2018-06-21T12:47:16.411Z,20.60
2018-06-21T12:49:44.876Z,20.50
2018-06-21T12:52:13.260Z,20.30
2018-06-21T12:54:41.706Z,20.60
2018-06-21T12:57:10.103Z,20.80
2018-06-21T12:59:38.459Z,21.30
2018-06-21T13:02:06.861Z,21.10
2018-06-21T13:04:35.275Z,21.20
2018-06-21T13:07:03.663Z,21.60
2018-06-21T13:09:43.396Z,21.60
2018-06-21T13:12:24.593Z,21.30
2018-06-21T13:14:53.412Z,21.30
2018-06-21T13:17:21.804Z,21.10
2018-06-21T13:19:50.455Z,21.20
2018-06-21T13:22:19.724Z,21.40
2018-06-21T13:24:48.151Z,21.10
2018-06-21T13:27:16.613Z,21.50
2018-06-21T13:29:44.982Z,21.40
2018-06-21T13:32:13.460Z,20.90
2018-06-21T13:34:42.071Z,20.60
2018-06-21T13:37:10.528Z,20.50
2018-06-21T13:39:38.861Z,21.00
2018-06-21T13:42:07.233Z,20.90
2018-06-21T13:44:35.594Z,20.70
2018-06-21T13:47:04.153Z,20.80
2018-06-21T13:49:32.595Z,21.30
2018-06-21T13:52:01.167Z,21.40
2018-06-21T13:54:29.808Z,21.50
2018-06-21T13:56:59.252Z,20.60
2018-06-21T13:59:27.640Z,20.10
2018-06-21T14:01:56.399Z,19.90
2018-06-21T14:04:24.832Z,20.20
2018-06-21T14:06:53.261Z,19.70
2018-06-21T14:09:22.132Z,19.60
2018-06-21T14:11:50.556Z,20.00
2018-06-21T14:14:19.355Z,20.20
2018-06-21T14:16:47.800Z,20.00
2018-06-21T14:19:16.193Z,20.20
2018-06-21T14:21:44.650Z,20.80
2018-06-21T14:24:14.180Z,20.60
2018-06-21T14:26:43.099Z,20.50
2018-06-21T14:29:11.475Z,20.30
2018-06-21T14:31:39.924Z,20.10
2018-06-21T14:34:08.307Z,19.70
2018-06-21T14:36:36.716Z,19.30
2018-06-21T14:39:07.441Z,19.00
2018-06-21T14:41:35.887Z,18.90
2018-06-21T14:44:04.309Z,19.50
2018-06-21T14:46:32.711Z,19.90
2018-06-21T14:49:01.211Z,20.00
2018-06-21T14:51:29.523Z,19.80
2018-06-21T14:53:58.053Z,19.30
2018-06-21T14:56:26.471Z,19.30
2018-06-21T14:58:54.887Z,19.40
2018-06-21T15:01:23.332Z,19.40
2018-06-21T15:03:51.789Z,19.30
2018-06-21T15:06:20.254Z,19.50
2018-06-21T15:08:48.720Z,19.50
2018-06-21T15:11:17.143Z,19.80
2018-06-21T15:13:49.795Z,19.50
2018-06-21T15:16:20.108Z,19.80
2018-06-21T15:18:48.617Z,19.70
2018-06-21T15:21:17.759Z,19.60
2018-06-21T15:23:46.431Z,19.30
2018-06-21T15:26:14.856Z,19.30
2018-06-21T15:28:43.548Z,19.50
2018-06-21T15:31:11.924Z,19.50
2018-06-21T15:33:40.384Z,19.80
2018-06-21T15:36:08.835Z,19.60
2018-06-21T15:38:37.380Z,19.80
2018-06-21T15:41:12.579Z,19.40
2018-06-21T15:43:41.100Z,18.80
2018-06-21T15:46:09.672Z,18.90
2018-06-21T15:48:38.112Z,18.90
2018-06-21T15:51:06.521Z,18.80
2018-06-21T15:53:34.910Z,18.70
2018-06-21T15:56:03.310Z,19.20
2018-06-21T15:58:31.663Z,19.20
2018-06-21T16:01:00.053Z,18.90
2018-06-21T16:03:28.457Z,18.40
2018-06-21T16:05:57.061Z,18.70
2018-06-21T16:08:25.557Z,19.10
2018-06-21T16:10:53.998Z,18.50
2018-06-21T16:13:22.459Z,18.50
2018-06-21T16:15:50.890Z,18.80
2018-06-21T16:18:19.233Z,18.70
2018-06-21T16:20:47.594Z,18.60
2018-06-21T16:23:15.964Z,18.90
2018-06-21T16:25:44.364Z,19.00
2018-06-21T16:28:12.736Z,19.00
2018-06-21T16:30:41.092Z,19.00
2018-06-21T16:33:09.455Z,18.90
2018-06-21T16:35:37.905Z,18.90
2018-06-21T16:38:06.489Z,18.80
2018-06-21T16:40:34.872Z,18.70
2018-06-21T16:43:03.303Z,18.50
2018-06-21T16:45:31.710Z,18.50
2018-06-21T16:48:00.187Z,18.30
2018-06-21T16:50:28.536Z,18.10
2018-06-21T16:52:57.020Z,18.00
2018-06-21T16:55:25.435Z,18.20
2018-06-21T16:57:54.025Z,18.00
2018-06-21T17:00:22.543Z,18.10
2018-06-21T17:02:50.977Z,18.40
2018-06-21T17:05:19.372Z,18.60
2018-06-21T17:07:47.891Z,18.30
2018-06-21T17:10:16.421Z,18.30
2018-06-21T17:12:44.780Z,17.90
2018-06-21T17:15:13.265Z,18.10
2018-06-21T17:17:41.628Z,17.80
2018-06-21T17:20:10.145Z,17.60
2018-06-21T17:22:38.736Z,17.50
2018-06-21T17:25:07.227Z,17.40
2018-06-21T17:27:35.816Z,17.30
2018-06-21T17:30:04.330Z,17.20
2018-06-21T17:32:32.687Z,17.00
2018-06-21T17:35:01.478Z,17.10
2018-06-21T17:37:30.085Z,17.30
2018-06-21T17:39:58.618Z,17.30
2018-06-21T17:42:27.196Z,17.20
2018-06-21T17:44:55.590Z,17.20
2018-06-21T17:47:23.975Z,17.30
2018-06-21T17:49:52.577Z,16.90
2018-06-21T17:52:20.989Z,16.80
2018-06-21T17:54:49.435Z,16.70
2018-06-21T17:57:17.973Z,16.60
2018-06-21T17:59:46.740Z,16.30
2018-06-21T18:02:15.124Z,16.20
2018-06-21T18:04:43.532Z,16.30
2018-06-21T18:07:11.935Z,16.30
2018-06-21T18:09:40.364Z,16.20
2018-06-21T18:12:08.905Z,16.30
2018-06-21T18:14:37.341Z,16.50
2018-06-21T18:17:06.027Z,16.70
2018-06-21T18:19:34.460Z,16.80
2018-06-21T18:22:02.862Z,16.80
2018-06-21T18:24:31.341Z,16.80
2018-06-21T18:26:59.772Z,16.80
2018-06-21T18:29:28.176Z,16.80
2018-06-21T18:31:56.554Z,16.70
2018-06-21T18:34:24.988Z,16.50
2018-06-21T18:36:53.360Z,16.20
2018-06-21T18:39:21.793Z,16.00
2018-06-21T18:41:50.384Z,15.90
2018-06-21T18:44:18.824Z,15.70
2018-06-21T18:46:47.208Z,15.50
2018-06-21T18:49:15.645Z,15.30
2018-06-21T18:51:44.022Z,15.20
2018-06-21T18:54:12.480Z,15.20
2018-06-21T18:56:40.928Z,15.10
2018-06-21T18:59:09.355Z,15.00
2018-06-21T19:01:37.752Z,15.00
2018-06-21T19:04:06.504Z,15.00
2018-06-21T19:06:40.252Z,14.90
2018-06-21T19:09:13.947Z,14.80
2018-06-21T19:11:47.635Z,14.80
2018-06-21T19:14:16.027Z,14.80
2018-06-21T19:16:44.643Z,14.70
2018-06-21T19:19:13.016Z,14.60
2018-06-21T19:21:41.495Z,14.50
2018-06-21T19:24:09.964Z,14.40
2018-06-21T19:26:38.421Z,14.30
2018-06-21T19:29:06.796Z,14.20
2018-06-21T19:31:35.424Z,14.10
2018-06-21T19:34:03.825Z,14.00
2018-06-21T19:36:32.357Z,13.90
2018-06-21T19:39:00.887Z,13.90
2018-06-21T19:41:29.302Z,13.80
2018-06-21T19:46:26.304Z,13.60
2018-06-21T19:48:54.720Z,13.60
2018-06-21T19:51:23.109Z,13.50
2018-06-21T19:53:51.502Z,13.50
2018-06-21T19:56:19.896Z,13.40
2018-06-21T19:58:48.410Z,13.30
2018-06-21T20:01:16.809Z,13.30
2018-06-21T20:03:45.243Z,13.20
2018-06-21T20:06:13.557Z,13.20
2018-06-21T20:08:42.934Z,13.10
2018-06-21T20:11:16.757Z,13.10
2018-06-21T20:13:48.509Z,13.00
2018-06-21T20:16:17.387Z,13.00
2018-06-21T20:18:45.756Z,12.90
2018-06-21T20:21:15.308Z,12.90
2018-06-21T20:23:45.273Z,12.90
2018-06-21T20:26:13.827Z,12.90
2018-06-21T20:28:42.553Z,12.80
2018-06-21T20:31:14.100Z,12.70
2018-06-21T20:33:43.632Z,12.70
2018-06-21T20:36:12.944Z,12.70
2018-06-21T20:38:41.554Z,12.70
2018-06-21T20:41:10.345Z,12.70
2018-06-21T20:43:38.717Z,12.70
2018-06-21T20:46:07.169Z,12.60
2018-06-21T20:48:35.544Z,12.60
2018-06-21T20:51:03.947Z,12.50
2018-06-21T20:53:32.356Z,12.50
2018-06-21T20:56:00.727Z,12.40
2018-06-21T20:58:29.144Z,12.40
2018-06-21T21:00:57.555Z,12.30
2018-06-21T21:03:25.937Z,12.30
2018-06-21T21:05:54.320Z,12.20
2018-06-21T21:08:22.720Z,12.20
2018-06-21T21:10:51.087Z,12.20
2018-06-21T21:13:19.473Z,12.10
2018-06-21T21:15:47.848Z,12.10
2018-06-21T21:18:16.234Z,12.10
2018-06-21T21:20:44.600Z,12.00
2018-06-21T21:23:13.061Z,12.00
2018-06-21T21:25:41.416Z,11.90
2018-06-21T21:28:09.851Z,11.80
2018-06-21T21:30:38.256Z,11.80
2018-06-21T21:33:06.682Z,11.70
2018-06-21T21:35:35.114Z,11.70
2018-06-21T21:38:03.504Z,11.70
2018-06-21T21:40:31.924Z,11.70
2018-06-21T21:43:00.393Z,11.70
2018-06-21T21:45:28.828Z,11.70
2018-06-21T21:47:57.207Z,11.60
2018-06-21T21:50:25.644Z,11.70
2018-06-21T21:52:54.092Z,11.60
2018-06-21T21:55:22.517Z,11.50
2018-06-21T21:57:50.892Z,11.50
2018-06-21T22:00:56.310Z,11.40
2018-06-21T22:03:24.814Z,11.40
2018-06-21T22:05:53.246Z,11.40
2018-06-21T22:08:21.598Z,11.40
2018-06-21T22:10:50.281Z,11.30
2018-06-21T22:13:19.137Z,11.20
2018-06-21T22:15:47.476Z,11.20
2018-06-21T22:18:15.835Z,11.10
2018-06-21T22:20:44.223Z,11.10
2018-06-21T22:23:12.580Z,11.00
2018-06-21T22:25:40.968Z,11.00
2018-06-21T22:28:09.340Z,10.90
2018-06-21T22:30:37.744Z,10.90
2018-06-21T22:33:06.200Z,10.80
2018-06-21T22:35:34.654Z,10.80
2018-06-21T22:38:03.023Z,10.70
2018-06-21T22:40:31.882Z,10.70
2018-06-21T22:43:00.268Z,10.60
2018-06-21T22:47:56.748Z,10.70
2018-06-21T22:50:25.140Z,10.70
2018-06-21T22:52:53.561Z,10.60
2018-06-21T22:55:21.936Z,10.60
2018-06-21T22:57:50.425Z,10.60
2018-06-21T23:00:18.804Z,10.60
2018-06-21T23:02:47.219Z,10.60
2018-06-21T23:05:15.672Z,10.50
2018-06-21T23:07:44.041Z,10.50
2018-06-21T23:10:12.426Z,10.50
2018-06-21T23:12:40.793Z,10.40
2018-06-21T23:15:09.191Z,10.40
2018-06-21T23:17:37.573Z,10.40
2018-06-21T23:20:06.008Z,10.40
2018-06-21T23:22:34.428Z,10.30
2018-06-21T23:25:02.799Z,10.30
2018-06-21T23:27:31.183Z,10.20
2018-06-21T23:29:59.614Z,10.20
2018-06-21T23:32:27.997Z,10.10
2018-06-21T23:34:56.445Z,10.10
2018-06-21T23:37:24.838Z,10.10
2018-06-21T23:39:53.272Z,10.10
2018-06-21T23:42:21.652Z,10.00
2018-06-21T23:44:50.030Z,10.00
2018-06-21T23:47:18.417Z,10.00
2018-06-21T23:49:46.810Z,10.00
2018-06-21T23:52:15.368Z,10.10
2018-06-21T23:54:43.842Z,10.10
2018-06-21T23:57:12.218Z,10.10
2018-06-21T23:59:40.731Z,10.00
